Rio Grande City, TX

3:20 AM CST en Noviembre 27, 2014 (GMT -0600)
San Felipe Ranch | Change Station
CLOSE
Current Station
Estación meteorológica personal
Location: Rio Grande City, TX
Altura: 515 ft
Estaciones meteorológicas cercanas

Alt 515 ft 26.63 °N, 98.72 °W | Updated 1 minute ago

Despejado
Despejado
48.4 ° F
Sensación térmica 48 ° F
N
0.0
Viento Variable Viento desde NE
Gusts 1.0 mph

Hoy
Alta -- | Baja -- ° F
--% Posibilidad de precipitaciones
Ayer
Alta -- | Baja -- ° F
Precip. -- pul
7:03 AM 5:42 PM
Creciente, 27% visible
Presión 30.31 pul
Visibilidad 10.0 Millas
Nubes Despejado
Vientos helados 48 ° F
Punto de rocío 45 ° F
Humedad 89%
Precipitaciones 0.00 pul
Espesor de la nieve No disponible.
UV 0 de una escala de 12
Polen 6.20 de una escala de 12
Calidad del aire No disponible.
Flu Activity No disponible.
METAR KMFE 270853Z AUTO 11003KT 10SM CLR 09/08 A3031 RMK AO2 SLP264 T00890078 56001

More Conditions Fewer Conditions

Presión 30.31 pul
Visibilidad 10.0 Millas
Nubes Despejado
Vientos helados 48 ° F
Punto de rocío 45 ° F
Humedad 89%
Precipitaciones 0.00 pul
Espesor de la nieve No disponible.
UV 0 de una escala de 12
Polen 6.20 de una escala de 12
Calidad del aire No disponible.
Flu Activity No disponible.
METAR KMFE 270853Z AUTO 11003KT 10SM CLR 09/08 A3031 RMK AO2 SLP264 T00890078 56001

More Conditions Fewer Conditions

10-Day Weather Forecast

Almanac

Astronomía

Nov. 27, 2014 Salida Puesta
Hora real
Crepúsculo civil
Crepúsculo náutico
Crepúsculo astronómico
Luna
Horas de luz
Horas de luz
Tomorrow will be .
, % of the Moon is Illuminated

Extremos de hoy

Máximos del estado Bajos del estado

Community

WunderPhotos

Upload Photos

1,773,965 ¡fotos cargadas!

WunderBlogs® & News

Nearby

Calidad del aire

  Calidad del aire Índice AQ Contaminante
Not available.

Grosos de nieve

Estación Profundido Altura

Actividad de terremotos

Ciudad Distance Mag. Tiempo y dato
Magnitud mínima muestra es 2,5.

Temperaturas de aguas costeras

Lugar Temperatura

Estaciones meteorológicas cercanas